sensor_id;sensor_type;location;lat;lon;timestamp;P1;durP1;ratioP1;P2;durP2;ratioP2
56429;SDS011;42332;52.136;20.666;2023-07-16T00:01:37;9.95;;;4.20;;
56429;SDS011;42332;52.136;20.666;2023-07-16T00:04:02;9.15;;;3.90;;
56429;SDS011;42332;52.136;20.666;2023-07-16T00:06:28;7.60;;;4.55;;
56429;SDS011;42332;52.136;20.666;2023-07-16T00:08:53;5.88;;;3.50;;
56429;SDS011;42332;52.136;20.666;2023-07-16T00:11:19;7.43;;;4.40;;
56429;SDS011;42332;52.136;20.666;2023-07-16T00:13:44;9.65;;;4.60;;
56429;SDS011;42332;52.136;20.666;2023-07-16T00:16:13;8.57;;;4.10;;
56429;SDS011;42332;52.136;20.666;2023-07-16T00:18:38;9.82;;;4.82;;
56429;SDS011;42332;52.136;20.666;2023-07-16T00:21:04;6.72;;;3.83;;
56429;SDS011;42332;52.136;20.666;2023-07-16T00:23:29;9.65;;;4.18;;
56429;SDS011;42332;52.136;20.666;2023-07-16T00:25:54;13.85;;;4.82;;
56429;SDS011;42332;52.136;20.666;2023-07-16T00:28:20;8.00;;;4.18;;
56429;SDS011;42332;52.136;20.666;2023-07-16T00:30:45;17.50;;;4.57;;
56429;SDS011;42332;52.136;20.666;2023-07-16T00:33:10;8.18;;;4.45;;
56429;SDS011;42332;52.136;20.666;2023-07-16T00:35:36;11.63;;;4.40;;
56429;SDS011;42332;52.136;20.666;2023-07-16T00:38:01;9.05;;;4.72;;
56429;SDS011;42332;52.136;20.666;2023-07-16T00:40:27;7.18;;;4.03;;
56429;SDS011;42332;52.136;20.666;2023-07-16T00:42:52;11.40;;;4.57;;
56429;SDS011;42332;52.136;20.666;2023-07-16T00:45:17;7.40;;;4.68;;
56429;SDS011;42332;52.136;20.666;2023-07-16T00:47:43;8.90;;;4.75;;
56429;SDS011;42332;52.136;20.666;2023-07-16T00:50:10;10.02;;;4.45;;
56429;SDS011;42332;52.136;20.666;2023-07-16T00:52:36;9.35;;;4.95;;
56429;SDS011;42332;52.136;20.666;2023-07-16T00:55:02;8.90;;;4.50;;
56429;SDS011;42332;52.136;20.666;2023-07-16T00:57:27;12.18;;;4.70;;
56429;SDS011;42332;52.136;20.666;2023-07-16T00:59:53;10.05;;;5.40;;
56429;SDS011;42332;52.136;20.666;2023-07-16T01:02:18;10.90;;;4.57;;
56429;SDS011;42332;52.136;20.666;2023-07-16T01:04:43;8.40;;;4.68;;
56429;SDS011;42332;52.136;20.666;2023-07-16T01:07:10;9.13;;;4.20;;
56429;SDS011;42332;52.136;20.666;2023-07-16T01:09:38;10.63;;;5.28;;
56429;SDS011;42332;52.136;20.666;2023-07-16T01:12:06;9.02;;;4.95;;
56429;SDS011;42332;52.136;20.666;2023-07-16T01:14:32;9.50;;;4.32;;
56429;SDS011;42332;52.136;20.666;2023-07-16T01:16:58;11.02;;;4.63;;
56429;SDS011;42332;52.136;20.666;2023-07-16T01:19:24;9.32;;;4.20;;
56429;SDS011;42332;52.136;20.666;2023-07-16T01:30:02;10.23;;;5.32;;
56429;SDS011;42332;52.136;20.666;2023-07-16T01:32:30;13.75;;;5.15;;
56429;SDS011;42332;52.136;20.666;2023-07-16T01:34:56;10.73;;;5.28;;
56429;SDS011;42332;52.136;20.666;2023-07-16T01:37:22;10.38;;;4.47;;
56429;SDS011;42332;52.136;20.666;2023-07-16T01:39:47;9.65;;;4.60;;
56429;SDS011;42332;52.136;20.666;2023-07-16T01:42:12;9.68;;;5.05;;
56429;SDS011;42332;52.136;20.666;2023-07-16T01:44:38;10.13;;;5.55;;
56429;SDS011;42332;52.136;20.666;2023-07-16T01:49:31;12.60;;;5.80;;
56429;SDS011;42332;52.136;20.666;2023-07-16T01:51:57;9.93;;;5.20;;
56429;SDS011;42332;52.136;20.666;2023-07-16T01:54:24;8.88;;;4.32;;
56429;SDS011;42332;52.136;20.666;2023-07-16T01:56:50;12.32;;;5.25;;
56429;SDS011;42332;52.136;20.666;2023-07-16T01:59:15;8.73;;;5.13;;
56429;SDS011;42332;52.136;20.666;2023-07-16T02:01:40;13.68;;;6.78;;
56429;SDS011;42332;52.136;20.666;2023-07-16T02:04:06;11.50;;;5.68;;
56429;SDS011;42332;52.136;20.666;2023-07-16T02:06:31;9.10;;;5.20;;
56429;SDS011;42332;52.136;20.666;2023-07-16T02:08:56;10.57;;;5.53;;
56429;SDS011;42332;52.136;20.666;2023-07-16T02:11:22;9.70;;;5.32;;
56429;SDS011;42332;52.136;20.666;2023-07-16T02:13:47;8.27;;;4.68;;
56429;SDS011;42332;52.136;20.666;2023-07-16T02:16:12;10.20;;;5.15;;
56429;SDS011;42332;52.136;20.666;2023-07-16T02:18:38;11.52;;;5.22;;
56429;SDS011;42332;52.136;20.666;2023-07-16T02:21:03;10.75;;;5.20;;
56429;SDS011;42332;52.136;20.666;2023-07-16T02:23:28;11.68;;;5.03;;
56429;SDS011;42332;52.136;20.666;2023-07-16T02:25:54;11.65;;;5.32;;
56429;SDS011;42332;52.136;20.666;2023-07-16T02:28:19;15.10;;;5.35;;
56429;SDS011;42332;52.136;20.666;2023-07-16T02:30:44;9.10;;;5.10;;
56429;SDS011;42332;52.136;20.666;2023-07-16T02:38:27;12.77;;;5.88;;
56429;SDS011;42332;52.136;20.666;2023-07-16T02:40:52;12.13;;;5.38;;
56429;SDS011;42332;52.136;20.666;2023-07-16T02:43:18;9.60;;;5.55;;
56429;SDS011;42332;52.136;20.666;2023-07-16T02:45:43;9.75;;;5.95;;
56429;SDS011;42332;52.136;20.666;2023-07-16T02:48:08;9.63;;;5.88;;
56429;SDS011;42332;52.136;20.666;2023-07-16T02:50:34;11.70;;;6.07;;
56429;SDS011;42332;52.136;20.666;2023-07-16T02:53:00;7.80;;;5.00;;
56429;SDS011;42332;52.136;20.666;2023-07-16T02:55:26;10.82;;;5.65;;
56429;SDS011;42332;52.136;20.666;2023-07-16T02:57:52;10.40;;;5.70;;
56429;SDS011;42332;52.136;20.666;2023-07-16T03:00:17;10.35;;;5.55;;
56429;SDS011;42332;52.136;20.666;2023-07-16T03:02:42;8.98;;;5.00;;
56429;SDS011;42332;52.136;20.666;2023-07-16T03:05:08;13.23;;;5.40;;
56429;SDS011;42332;52.136;20.666;2023-07-16T03:07:33;10.82;;;5.47;;
56429;SDS011;42332;52.136;20.666;2023-07-16T03:09:58;13.75;;;5.78;;
56429;SDS011;42332;52.136;20.666;2023-07-16T03:12:24;10.77;;;5.20;;
56429;SDS011;42332;52.136;20.666;2023-07-16T03:14:50;9.07;;;5.72;;
56429;SDS011;42332;52.136;20.666;2023-07-16T03:17:16;13.95;;;6.28;;
56429;SDS011;42332;52.136;20.666;2023-07-16T03:19:41;13.85;;;5.53;;
56429;SDS011;42332;52.136;20.666;2023-07-16T03:22:06;9.32;;;5.43;;
56429;SDS011;42332;52.136;20.666;2023-07-16T03:24:32;11.32;;;6.20;;
56429;SDS011;42332;52.136;20.666;2023-07-16T03:26:57;10.95;;;5.57;;
56429;SDS011;42332;52.136;20.666;2023-07-16T03:29:22;13.57;;;5.45;;
56429;SDS011;42332;52.136;20.666;2023-07-16T03:31:48;10.13;;;5.78;;
56429;SDS011;42332;52.136;20.666;2023-07-16T03:34:13;10.02;;;5.40;;
56429;SDS011;42332;52.136;20.666;2023-07-16T03:36:38;12.60;;;6.00;;
56429;SDS011;42332;52.136;20.666;2023-07-16T03:39:04;10.50;;;6.00;;
56429;SDS011;42332;52.136;20.666;2023-07-16T03:41:29;15.07;;;6.07;;
56429;SDS011;42332;52.136;20.666;2023-07-16T03:43:54;16.67;;;6.18;;
56429;SDS011;42332;52.136;20.666;2023-07-16T03:46:20;11.18;;;6.00;;
56429;SDS011;42332;52.136;20.666;2023-07-16T03:48:45;9.13;;;5.65;;
56429;SDS011;42332;52.136;20.666;2023-07-16T03:51:10;10.00;;;5.40;;
56429;SDS011;42332;52.136;20.666;2023-07-16T03:53:36;11.10;;;5.80;;
56429;SDS011;42332;52.136;20.666;2023-07-16T03:56:01;11.93;;;5.78;;
56429;SDS011;42332;52.136;20.666;2023-07-16T03:58:26;8.90;;;5.78;;
56429;SDS011;42332;52.136;20.666;2023-07-16T04:00:54;10.27;;;5.60;;
56429;SDS011;42332;52.136;20.666;2023-07-16T04:03:19;15.63;;;5.82;;
56429;SDS011;42332;52.136;20.666;2023-07-16T04:05:45;12.55;;;5.30;;
56429;SDS011;42332;52.136;20.666;2023-07-16T04:08:10;12.23;;;6.43;;
56429;SDS011;42332;52.136;20.666;2023-07-16T04:10:35;11.90;;;5.60;;
56429;SDS011;42332;52.136;20.666;2023-07-16T04:13:01;10.13;;;5.43;;
56429;SDS011;42332;52.136;20.666;2023-07-16T04:15:26;11.35;;;6.00;;
56429;SDS011;42332;52.136;20.666;2023-07-16T04:17:51;12.30;;;5.60;;
56429;SDS011;42332;52.136;20.666;2023-07-16T04:20:17;8.82;;;5.57;;
56429;SDS011;42332;52.136;20.666;2023-07-16T04:22:42;13.15;;;5.82;;
56429;SDS011;42332;52.136;20.666;2023-07-16T04:25:07;18.70;;;5.97;;
56429;SDS011;42332;52.136;20.666;2023-07-16T04:27:33;9.98;;;5.50;;
56429;SDS011;42332;52.136;20.666;2023-07-16T04:29:58;12.23;;;7.00;;
56429;SDS011;42332;52.136;20.666;2023-07-16T04:32:24;11.00;;;5.57;;
56429;SDS011;42332;52.136;20.666;2023-07-16T04:34:49;7.65;;;5.00;;
56429;SDS011;42332;52.136;20.666;2023-07-16T04:37:14;13.02;;;5.78;;
56429;SDS011;42332;52.136;20.666;2023-07-16T04:39:40;14.23;;;5.45;;
56429;SDS011;42332;52.136;20.666;2023-07-16T04:42:05;10.77;;;5.85;;
56429;SDS011;42332;52.136;20.666;2023-07-16T04:44:30;9.77;;;5.78;;
56429;SDS011;42332;52.136;20.666;2023-07-16T04:46:56;10.65;;;5.30;;
56429;SDS011;42332;52.136;20.666;2023-07-16T04:49:21;9.82;;;5.70;;
56429;SDS011;42332;52.136;20.666;2023-07-16T04:51:46;12.82;;;5.50;;
56429;SDS011;42332;52.136;20.666;2023-07-16T04:54:12;11.15;;;6.15;;
56429;SDS011;42332;52.136;20.666;2023-07-16T04:56:37;9.25;;;5.65;;
56429;SDS011;42332;52.136;20.666;2023-07-16T04:59:03;9.38;;;4.85;;
56429;SDS011;42332;52.136;20.666;2023-07-16T05:01:28;9.30;;;5.63;;
56429;SDS011;42332;52.136;20.666;2023-07-16T05:03:53;9.05;;;5.10;;
56429;SDS011;42332;52.136;20.666;2023-07-16T05:06:19;11.77;;;5.63;;
56429;SDS011;42332;52.136;20.666;2023-07-16T05:08:44;10.35;;;5.82;;
56429;SDS011;42332;52.136;20.666;2023-07-16T05:11:09;9.75;;;5.45;;
56429;SDS011;42332;52.136;20.666;2023-07-16T05:13:35;10.05;;;5.55;;
56429;SDS011;42332;52.136;20.666;2023-07-16T05:16:00;8.70;;;5.53;;
56429;SDS011;42332;52.136;20.666;2023-07-16T05:18:25;12.05;;;5.28;;
56429;SDS011;42332;52.136;20.666;2023-07-16T05:20:51;12.23;;;4.93;;
56429;SDS011;42332;52.136;20.666;2023-07-16T05:23:16;9.73;;;5.47;;
56429;SDS011;42332;52.136;20.666;2023-07-16T05:25:45;10.23;;;5.30;;
56429;SDS011;42332;52.136;20.666;2023-07-16T05:28:17;8.85;;;5.18;;
56429;SDS011;42332;52.136;20.666;2023-07-16T05:30:43;7.25;;;4.43;;
56429;SDS011;42332;52.136;20.666;2023-07-16T05:33:09;10.00;;;4.88;;
56429;SDS011;42332;52.136;20.666;2023-07-16T05:35:38;9.57;;;5.03;;
56429;SDS011;42332;52.136;20.666;2023-07-16T05:38:04;7.72;;;4.85;;
56429;SDS011;42332;52.136;20.666;2023-07-16T05:40:29;9.85;;;5.55;;
56429;SDS011;42332;52.136;20.666;2023-07-16T05:42:55;9.60;;;4.80;;
56429;SDS011;42332;52.136;20.666;2023-07-16T05:45:20;10.48;;;5.00;;
56429;SDS011;42332;52.136;20.666;2023-07-16T05:47:45;9.85;;;4.40;;
56429;SDS011;42332;52.136;20.666;2023-07-16T05:50:11;12.70;;;4.93;;
56429;SDS011;42332;52.136;20.666;2023-07-16T05:52:36;8.25;;;4.65;;
56429;SDS011;42332;52.136;20.666;2023-07-16T05:55:02;8.18;;;4.53;;
56429;SDS011;42332;52.136;20.666;2023-07-16T05:57:27;10.15;;;4.95;;
56429;SDS011;42332;52.136;20.666;2023-07-16T05:59:52;10.32;;;4.68;;
56429;SDS011;42332;52.136;20.666;2023-07-16T06:02:18;7.97;;;4.30;;
56429;SDS011;42332;52.136;20.666;2023-07-16T06:04:43;14.57;;;4.57;;
56429;SDS011;42332;52.136;20.666;2023-07-16T06:07:09;7.35;;;4.28;;
56429;SDS011;42332;52.136;20.666;2023-07-16T06:09:34;8.63;;;4.43;;
56429;SDS011;42332;52.136;20.666;2023-07-16T06:12:00;7.22;;;4.60;;
56429;SDS011;42332;52.136;20.666;2023-07-16T06:14:25;7.80;;;4.05;;
56429;SDS011;42332;52.136;20.666;2023-07-16T06:16:50;12.35;;;4.85;;
56429;SDS011;42332;52.136;20.666;2023-07-16T06:19:17;8.88;;;4.30;;
56429;SDS011;42332;52.136;20.666;2023-07-16T06:21:42;9.38;;;4.10;;
56429;SDS011;42332;52.136;20.666;2023-07-16T06:24:08;7.38;;;4.20;;
56429;SDS011;42332;52.136;20.666;2023-07-16T06:26:33;9.48;;;4.47;;
56429;SDS011;42332;52.136;20.666;2023-07-16T06:28:58;10.65;;;4.38;;
56429;SDS011;42332;52.136;20.666;2023-07-16T06:31:24;8.50;;;4.18;;
56429;SDS011;42332;52.136;20.666;2023-07-16T06:33:49;11.65;;;4.40;;
56429;SDS011;42332;52.136;20.666;2023-07-16T06:36:15;8.40;;;3.97;;
56429;SDS011;42332;52.136;20.666;2023-07-16T06:38:41;10.32;;;4.32;;
56429;SDS011;42332;52.136;20.666;2023-07-16T06:41:06;12.95;;;3.92;;
56429;SDS011;42332;52.136;20.666;2023-07-16T06:43:32;6.57;;;3.70;;
56429;SDS011;42332;52.136;20.666;2023-07-16T06:45:57;11.23;;;3.65;;
56429;SDS011;42332;52.136;20.666;2023-07-16T06:48:22;8.00;;;3.83;;
56429;SDS011;42332;52.136;20.666;2023-07-16T06:50:49;8.38;;;4.22;;
56429;SDS011;42332;52.136;20.666;2023-07-16T06:53:15;6.60;;;3.83;;
56429;SDS011;42332;52.136;20.666;2023-07-16T06:55:40;10.70;;;4.10;;
56429;SDS011;42332;52.136;20.666;2023-07-16T06:58:05;6.90;;;3.20;;
56429;SDS011;42332;52.136;20.666;2023-07-16T07:00:30;7.32;;;3.97;;
56429;SDS011;42332;52.136;20.666;2023-07-16T07:02:56;8.40;;;3.63;;
56429;SDS011;42332;52.136;20.666;2023-07-16T07:05:21;6.72;;;3.70;;
56429;SDS011;42332;52.136;20.666;2023-07-16T07:07:47;11.32;;;3.75;;
56429;SDS011;42332;52.136;20.666;2023-07-16T07:10:12;8.30;;;3.35;;
56429;SDS011;42332;52.136;20.666;2023-07-16T07:12:38;6.00;;;3.53;;
56429;SDS011;42332;52.136;20.666;2023-07-16T07:15:06;8.10;;;3.30;;
56429;SDS011;42332;52.136;20.666;2023-07-16T07:17:33;6.97;;;3.83;;
56429;SDS011;42332;52.136;20.666;2023-07-16T07:19:58;6.85;;;3.25;;
56429;SDS011;42332;52.136;20.666;2023-07-16T07:22:23;10.80;;;3.28;;
56429;SDS011;42332;52.136;20.666;2023-07-16T07:24:49;7.60;;;3.50;;
56429;SDS011;42332;52.136;20.666;2023-07-16T07:27:14;9.02;;;3.70;;
56429;SDS011;42332;52.136;20.666;2023-07-16T07:29:40;8.70;;;3.40;;
56429;SDS011;42332;52.136;20.666;2023-07-16T07:32:05;7.05;;;3.28;;
56429;SDS011;42332;52.136;20.666;2023-07-16T07:34:31;7.20;;;3.45;;
56429;SDS011;42332;52.136;20.666;2023-07-16T07:36:56;9.32;;;3.42;;
56429;SDS011;42332;52.136;20.666;2023-07-16T07:39:21;6.05;;;3.55;;
56429;SDS011;42332;52.136;20.666;2023-07-16T07:41:47;8.82;;;3.72;;
56429;SDS011;42332;52.136;20.666;2023-07-16T07:44:12;7.15;;;3.95;;
56429;SDS011;42332;52.136;20.666;2023-07-16T07:46:37;6.88;;;3.72;;
56429;SDS011;42332;52.136;20.666;2023-07-16T07:49:03;6.35;;;3.90;;
56429;SDS011;42332;52.136;20.666;2023-07-16T07:51:28;10.52;;;4.32;;
56429;SDS011;42332;52.136;20.666;2023-07-16T07:53:53;7.78;;;3.90;;
56429;SDS011;42332;52.136;20.666;2023-07-16T07:56:19;7.75;;;4.20;;
56429;SDS011;42332;52.136;20.666;2023-07-16T07:58:44;7.30;;;4.10;;
56429;SDS011;42332;52.136;20.666;2023-07-16T08:01:09;7.00;;;3.88;;
56429;SDS011;42332;52.136;20.666;2023-07-16T08:03:35;8.95;;;3.72;;
56429;SDS011;42332;52.136;20.666;2023-07-16T08:06:00;7.72;;;4.35;;
56429;SDS011;42332;52.136;20.666;2023-07-16T08:08:26;9.35;;;4.18;;
56429;SDS011;42332;52.136;20.666;2023-07-16T08:10:52;6.97;;;4.40;;
56429;SDS011;42332;52.136;20.666;2023-07-16T08:13:18;11.38;;;4.47;;
56429;SDS011;42332;52.136;20.666;2023-07-16T08:15:43;8.65;;;4.00;;
56429;SDS011;42332;52.136;20.666;2023-07-16T08:18:08;6.90;;;4.55;;
56429;SDS011;42332;52.136;20.666;2023-07-16T08:20:35;8.27;;;4.45;;
56429;SDS011;42332;52.136;20.666;2023-07-16T08:23:01;6.70;;;4.25;;
56429;SDS011;42332;52.136;20.666;2023-07-16T08:25:26;8.77;;;4.65;;
56429;SDS011;42332;52.136;20.666;2023-07-16T08:27:51;9.55;;;4.60;;
56429;SDS011;42332;52.136;20.666;2023-07-16T08:30:17;7.38;;;4.00;;
56429;SDS011;42332;52.136;20.666;2023-07-16T08:32:42;7.68;;;4.40;;
56429;SDS011;42332;52.136;20.666;2023-07-16T08:35:08;7.25;;;3.85;;
56429;SDS011;42332;52.136;20.666;2023-07-16T08:37:37;7.43;;;4.03;;
56429;SDS011;42332;52.136;20.666;2023-07-16T08:40:02;7.97;;;4.50;;
56429;SDS011;42332;52.136;20.666;2023-07-16T08:42:28;8.77;;;4.50;;
56429;SDS011;42332;52.136;20.666;2023-07-16T08:44:54;8.77;;;4.20;;
56429;SDS011;42332;52.136;20.666;2023-07-16T08:47:19;7.97;;;4.07;;
56429;SDS011;42332;52.136;20.666;2023-07-16T08:49:54;9.32;;;4.18;;
56429;SDS011;42332;52.136;20.666;2023-07-16T08:52:23;8.65;;;4.57;;
56429;SDS011;42332;52.136;20.666;2023-07-16T08:54:49;17.23;;;5.18;;
56429;SDS011;42332;52.136;20.666;2023-07-16T08:57:14;9.68;;;3.95;;
56429;SDS011;42332;52.136;20.666;2023-07-16T08:59:40;7.72;;;3.90;;
56429;SDS011;42332;52.136;20.666;2023-07-16T09:02:06;9.13;;;4.40;;
56429;SDS011;42332;52.136;20.666;2023-07-16T09:04:32;10.13;;;4.07;;
56429;SDS011;42332;52.136;20.666;2023-07-16T09:06:57;7.90;;;4.00;;
56429;SDS011;42332;52.136;20.666;2023-07-16T09:09:23;7.18;;;3.88;;
56429;SDS011;42332;52.136;20.666;2023-07-16T09:11:49;12.35;;;3.80;;
56429;SDS011;42332;52.136;20.666;2023-07-16T09:14:20;8.27;;;3.60;;
56429;SDS011;42332;52.136;20.666;2023-07-16T09:16:49;6.68;;;4.10;;
56429;SDS011;42332;52.136;20.666;2023-07-16T09:19:15;12.05;;;4.22;;
56429;SDS011;42332;52.136;20.666;2023-07-16T09:21:45;5.57;;;3.45;;
56429;SDS011;42332;52.136;20.666;2023-07-16T09:24:11;10.02;;;4.22;;
56429;SDS011;42332;52.136;20.666;2023-07-16T09:26:37;9.10;;;4.10;;
56429;SDS011;42332;52.136;20.666;2023-07-16T09:29:06;6.95;;;4.05;;
56429;SDS011;42332;52.136;20.666;2023-07-16T09:31:32;7.88;;;4.40;;
56429;SDS011;42332;52.136;20.666;2023-07-16T09:33:58;6.88;;;3.97;;
56429;SDS011;42332;52.136;20.666;2023-07-16T09:36:26;7.07;;;4.40;;
56429;SDS011;42332;52.136;20.666;2023-07-16T09:38:53;9.93;;;4.35;;
56429;SDS011;42332;52.136;20.666;2023-07-16T09:41:19;9.63;;;4.70;;
56429;SDS011;42332;52.136;20.666;2023-07-16T09:43:45;7.93;;;4.35;;
56429;SDS011;42332;52.136;20.666;2023-07-16T09:46:11;13.65;;;4.85;;
56429;SDS011;42332;52.136;20.666;2023-07-16T09:48:36;7.82;;;4.00;;
56429;SDS011;42332;52.136;20.666;2023-07-16T09:51:01;7.65;;;4.47;;
56429;SDS011;42332;52.136;20.666;2023-07-16T09:53:27;6.95;;;4.07;;
56429;SDS011;42332;52.136;20.666;2023-07-16T09:55:55;7.50;;;4.18;;
56429;SDS011;42332;52.136;20.666;2023-07-16T09:58:21;9.25;;;4.57;;
56429;SDS011;42332;52.136;20.666;2023-07-16T10:00:47;10.18;;;4.18;;
56429;SDS011;42332;52.136;20.666;2023-07-16T10:03:14;7.70;;;4.55;;
56429;SDS011;42332;52.136;20.666;2023-07-16T10:05:41;10.18;;;3.83;;
56429;SDS011;42332;52.136;20.666;2023-07-16T10:08:15;9.55;;;4.47;;
56429;SDS011;42332;52.136;20.666;2023-07-16T10:10:42;14.15;;;4.65;;
56429;SDS011;42332;52.136;20.666;2023-07-16T10:13:11;8.10;;;4.07;;
56429;SDS011;42332;52.136;20.666;2023-07-16T10:15:38;7.15;;;4.15;;
56429;SDS011;42332;52.136;20.666;2023-07-16T10:18:04;9.95;;;3.40;;
56429;SDS011;42332;52.136;20.666;2023-07-16T10:22:56;7.15;;;4.03;;
56429;SDS011;42332;52.136;20.666;2023-07-16T10:25:22;8.75;;;4.60;;
56429;SDS011;42332;52.136;20.666;2023-07-16T10:27:49;9.82;;;4.20;;
56429;SDS011;42332;52.136;20.666;2023-07-16T10:30:16;6.90;;;3.72;;
56429;SDS011;42332;52.136;20.666;2023-07-16T10:32:41;7.25;;;3.88;;
56429;SDS011;42332;52.136;20.666;2023-07-16T10:35:08;11.50;;;3.80;;
56429;SDS011;42332;52.136;20.666;2023-07-16T10:37:34;8.52;;;3.97;;
56429;SDS011;42332;52.136;20.666;2023-07-16T10:39:59;9.80;;;4.28;;
56429;SDS011;42332;52.136;20.666;2023-07-16T10:42:26;7.80;;;4.30;;
56429;SDS011;42332;52.136;20.666;2023-07-16T10:44:53;6.53;;;3.78;;
56429;SDS011;42332;52.136;20.666;2023-07-16T10:47:29;11.13;;;4.25;;
56429;SDS011;42332;52.136;20.666;2023-07-16T10:49:56;7.70;;;4.07;;
56429;SDS011;42332;52.136;20.666;2023-07-16T10:52:21;7.60;;;4.45;;
56429;SDS011;42332;52.136;20.666;2023-07-16T10:54:47;8.75;;;4.53;;
56429;SDS011;42332;52.136;20.666;2023-07-16T10:57:15;7.68;;;4.15;;
56429;SDS011;42332;52.136;20.666;2023-07-16T10:59:41;10.52;;;4.65;;
56429;SDS011;42332;52.136;20.666;2023-07-16T11:02:10;12.48;;;4.45;;
56429;SDS011;42332;52.136;20.666;2023-07-16T11:04:36;7.57;;;4.43;;
56429;SDS011;42332;52.136;20.666;2023-07-16T11:07:08;20.88;;;5.45;;
56429;SDS011;42332;52.136;20.666;2023-07-16T11:12:08;7.95;;;4.07;;
56429;SDS011;42332;52.136;20.666;2023-07-16T11:14:35;12.73;;;4.68;;
56429;SDS011;42332;52.136;20.666;2023-07-16T11:17:07;9.13;;;4.20;;
56429;SDS011;42332;52.136;20.666;2023-07-16T11:19:36;10.55;;;4.53;;
56429;SDS011;42332;52.136;20.666;2023-07-16T11:22:02;8.43;;;4.03;;
56429;SDS011;42332;52.136;20.666;2023-07-16T11:24:35;14.70;;;4.43;;
56429;SDS011;42332;52.136;20.666;2023-07-16T11:27:05;13.02;;;3.80;;
56429;SDS011;42332;52.136;20.666;2023-07-16T11:29:34;7.97;;;4.50;;
56429;SDS011;42332;52.136;20.666;2023-07-16T11:32:03;8.18;;;3.58;;
56429;SDS011;42332;52.136;20.666;2023-07-16T11:34:29;12.82;;;4.22;;
56429;SDS011;42332;52.136;20.666;2023-07-16T11:36:54;6.43;;;3.92;;
56429;SDS011;42332;52.136;20.666;2023-07-16T11:39:19;7.90;;;4.28;;
56429;SDS011;42332;52.136;20.666;2023-07-16T11:41:57;7.70;;;3.72;;
56429;SDS011;42332;52.136;20.666;2023-07-16T11:44:23;8.00;;;3.40;;
56429;SDS011;42332;52.136;20.666;2023-07-16T11:46:48;6.38;;;3.45;;
56429;SDS011;42332;52.136;20.666;2023-07-16T11:49:15;5.20;;;2.60;;
56429;SDS011;42332;52.136;20.666;2023-07-16T11:51:40;6.82;;;3.20;;
56429;SDS011;42332;52.136;20.666;2023-07-16T11:54:08;5.88;;;3.33;;
56429;SDS011;42332;52.136;20.666;2023-07-16T11:56:33;8.55;;;3.47;;
56429;SDS011;42332;52.136;20.666;2023-07-16T11:58:58;6.57;;;3.70;;
56429;SDS011;42332;52.136;20.666;2023-07-16T12:01:24;7.13;;;3.80;;
56429;SDS011;42332;52.136;20.666;2023-07-16T12:03:49;5.45;;;3.15;;
56429;SDS011;42332;52.136;20.666;2023-07-16T12:06:14;6.70;;;2.90;;
56429;SDS011;42332;52.136;20.666;2023-07-16T12:08:40;6.82;;;3.25;;
56429;SDS011;42332;52.136;20.666;2023-07-16T12:11:05;6.00;;;2.60;;
56429;SDS011;42332;52.136;20.666;2023-07-16T12:13:30;5.75;;;2.60;;
56429;SDS011;42332;52.136;20.666;2023-07-16T12:15:56;7.90;;;2.97;;
56429;SDS011;42332;52.136;20.666;2023-07-16T12:18:21;5.13;;;2.80;;
56429;SDS011;42332;52.136;20.666;2023-07-16T12:20:47;6.22;;;3.17;;
56429;SDS011;42332;52.136;20.666;2023-07-16T12:23:12;8.40;;;2.72;;
56429;SDS011;42332;52.136;20.666;2023-07-16T12:25:37;5.38;;;3.08;;
56429;SDS011;42332;52.136;20.666;2023-07-16T12:28:02;7.57;;;2.60;;
56429;SDS011;42332;52.136;20.666;2023-07-16T12:30:28;5.22;;;2.63;;
56429;SDS011;42332;52.136;20.666;2023-07-16T12:32:53;14.93;;;3.40;;
56429;SDS011;42332;52.136;20.666;2023-07-16T12:35:18;8.80;;;2.75;;
56429;SDS011;42332;52.136;20.666;2023-07-16T12:37:44;10.15;;;2.83;;
56429;SDS011;42332;52.136;20.666;2023-07-16T12:40:09;8.05;;;2.53;;
56429;SDS011;42332;52.136;20.666;2023-07-16T12:42:35;6.10;;;2.30;;
56429;SDS011;42332;52.136;20.666;2023-07-16T12:45:01;6.28;;;2.67;;
56429;SDS011;42332;52.136;20.666;2023-07-16T12:47:26;6.57;;;2.45;;
56429;SDS011;42332;52.136;20.666;2023-07-16T12:49:52;12.05;;;2.67;;
56429;SDS011;42332;52.136;20.666;2023-07-16T12:52:17;6.45;;;2.50;;
56429;SDS011;42332;52.136;20.666;2023-07-16T12:54:42;9.60;;;3.08;;
56429;SDS011;42332;52.136;20.666;2023-07-16T12:57:08;4.55;;;2.25;;
56429;SDS011;42332;52.136;20.666;2023-07-16T12:59:33;9.55;;;2.30;;
56429;SDS011;42332;52.136;20.666;2023-07-16T13:01:58;4.32;;;2.30;;
56429;SDS011;42332;52.136;20.666;2023-07-16T13:04:24;7.35;;;2.15;;
56429;SDS011;42332;52.136;20.666;2023-07-16T13:06:49;8.27;;;2.20;;
56429;SDS011;42332;52.136;20.666;2023-07-16T13:09:15;4.78;;;2.22;;
56429;SDS011;42332;52.136;20.666;2023-07-16T13:11:42;7.18;;;2.35;;
56429;SDS011;42332;52.136;20.666;2023-07-16T13:14:07;5.35;;;2.13;;
56429;SDS011;42332;52.136;20.666;2023-07-16T13:16:33;17.33;;;2.90;;
56429;SDS011;42332;52.136;20.666;2023-07-16T13:18:58;4.68;;;2.30;;
56429;SDS011;42332;52.136;20.666;2023-07-16T13:21:23;7.05;;;2.20;;
56429;SDS011;42332;52.136;20.666;2023-07-16T13:23:48;8.60;;;2.40;;
56429;SDS011;42332;52.136;20.666;2023-07-16T13:26:14;4.40;;;1.80;;
56429;SDS011;42332;52.136;20.666;2023-07-16T13:28:39;7.80;;;2.42;;
56429;SDS011;42332;52.136;20.666;2023-07-16T13:31:05;6.53;;;2.38;;
56429;SDS011;42332;52.136;20.666;2023-07-16T13:33:31;5.70;;;2.40;;
56429;SDS011;42332;52.136;20.666;2023-07-16T13:35:56;5.32;;;2.40;;
56429;SDS011;42332;52.136;20.666;2023-07-16T13:38:22;4.60;;;2.47;;
56429;SDS011;42332;52.136;20.666;2023-07-16T13:40:47;6.35;;;2.20;;
56429;SDS011;42332;52.136;20.666;2023-07-16T13:43:12;7.13;;;2.17;;
56429;SDS011;42332;52.136;20.666;2023-07-16T13:45:38;5.45;;;2.15;;
56429;SDS011;42332;52.136;20.666;2023-07-16T13:48:04;6.32;;;2.13;;
56429;SDS011;42332;52.136;20.666;2023-07-16T13:50:29;4.60;;;2.10;;
56429;SDS011;42332;52.136;20.666;2023-07-16T13:52:54;6.40;;;2.15;;
56429;SDS011;42332;52.136;20.666;2023-07-16T13:55:20;6.70;;;2.17;;
56429;SDS011;42332;52.136;20.666;2023-07-16T13:57:45;4.72;;;2.10;;
56429;SDS011;42332;52.136;20.666;2023-07-16T14:00:11;4.75;;;2.20;;
56429;SDS011;42332;52.136;20.666;2023-07-16T14:02:37;9.10;;;2.33;;
56429;SDS011;42332;52.136;20.666;2023-07-16T14:05:02;4.35;;;2.10;;
56429;SDS011;42332;52.136;20.666;2023-07-16T14:07:29;3.25;;;1.63;;
56429;SDS011;42332;52.136;20.666;2023-07-16T14:09:54;5.95;;;2.03;;
56429;SDS011;42332;52.136;20.666;2023-07-16T14:12:20;3.95;;;1.90;;
56429;SDS011;42332;52.136;20.666;2023-07-16T14:14:45;9.27;;;2.08;;
56429;SDS011;42332;52.136;20.666;2023-07-16T14:17:11;3.40;;;1.55;;
56429;SDS011;42332;52.136;20.666;2023-07-16T14:19:36;5.80;;;1.92;;
56429;SDS011;42332;52.136;20.666;2023-07-16T14:22:01;7.20;;;1.92;;
56429;SDS011;42332;52.136;20.666;2023-07-16T14:24:27;4.28;;;1.55;;
56429;SDS011;42332;52.136;20.666;2023-07-16T14:26:52;4.22;;;1.80;;
56429;SDS011;42332;52.136;20.666;2023-07-16T14:29:17;4.20;;;1.90;;
56429;SDS011;42332;52.136;20.666;2023-07-16T14:31:43;6.03;;;1.70;;
56429;SDS011;42332;52.136;20.666;2023-07-16T14:34:08;3.75;;;1.85;;
56429;SDS011;42332;52.136;20.666;2023-07-16T14:36:34;4.55;;;1.70;;
56429;SDS011;42332;52.136;20.666;2023-07-16T14:38:59;5.30;;;2.00;;
56429;SDS011;42332;52.136;20.666;2023-07-16T14:41:24;7.70;;;1.70;;
56429;SDS011;42332;52.136;20.666;2023-07-16T14:43:50;8.60;;;1.85;;